Time;durP1;ratioP1;P1;durP2;ratioP2;P2;SDS_P1;SDS_P2;PMS_P1;PMS_P2;Temp;Humidity;BMP_temperature;BMP_pressure;BME280_temperature;BME280_humidity;BME280_pressure;Samples;Min_cycle;Max_cycle;Signal;HPM_P1;HPM_P2
2023/04/15 00:01:57;;;;;;;3.6;1.9;;;;;;;9.9;74.4;97380;;;;
2023/04/15 00:11:57;;;;;;;3.6;1.9;;;;;;;9.8;74.1;97390;;;;
2023/04/15 00:22:59;;;;;;;3.1;1.7;;;;;;;9.7;73.6;97400;;;;
2023/04/15 00:33:58;;;;;;;3.1;1.7;;;;;;;9.5;74;97400;;;;
2023/04/15 00:43:58;;;;;;;2.4;1.2;;;;;;;9.5;73.8;97400;;;;
2023/04/15 00:54:57;;;;;;;2.4;1.2;;;;;;;9.4;73.9;97380;;;;
2023/04/15 01:04:57;;;;;;;2.4;1.2;;;;;;;9.4;74.4;97390;;;;
2023/04/15 01:15:57;;;;;;;3.3;1.1;;;;;;;9.3;74.1;97400;;;;
2023/04/15 01:25:57;;;;;;;3.3;1.1;;;;;;;9.3;74.4;97400;;;;
2023/04/15 01:35:57;;;;;;;3.3;1.1;;;;;;;9.3;74.2;97420;;;;
2023/04/15 01:45:57;;;;;;;2.5;1.1;;;;;;;9.2;74.2;97410;;;;
2023/04/15 01:56:57;;;;;;;2.5;1.1;;;;;;;9.1;74.3;97420;;;;
2023/04/15 02:06:57;;;;;;;2.5;1.1;;;;;;;9;74.5;97430;;;;
2023/04/15 02:17:05;;;;;;;2.4;1.3;;;;;;;8.8;74.8;97430;;;;
2023/04/15 02:27:57;;;;;;;2.4;1.3;;;;;;;8.7;74.9;97450;;;;
2023/04/15 02:38:57;;;;;;;2.4;1.3;;;;;;;8.5;75;97450;;;;
2023/04/15 02:49:59;;;;;;;2.3;1;;;;;;;8.6;74.9;97460;;;;
2023/04/15 02:59:57;;;;;;;2.3;1;;;;;;;8.5;74.7;97450;;;;
2023/04/15 03:10:59;;;;;;;2.3;1;;;;;;;8.2;74.9;97460;;;;
2023/04/15 03:20:57;;;;;;;2.7;1.2;;;;;;;8;75.2;97460;;;;
2023/04/15 03:31:57;;;;;;;2.7;1.2;;;;;;;7.9;75.6;97480;;;;
2023/04/15 03:42:57;;;;;;;3;1.3;;;;;;;7.7;76.9;97480;;;;
2023/04/15 03:52:57;;;;;;;3;1.3;;;;;;;7.5;77.4;97520;;;;
2023/04/15 04:02:57;;;;;;;3;1.3;;;;;;;7.5;77.5;97530;;;;
2023/04/15 04:12:57;;;;;;;5.1;2.2;;;;;;;7.5;77.9;97540;;;;
2023/04/15 04:23:57;;;;;;;5.1;2.2;;;;;;;7.5;78.3;97540;;;;
2023/04/15 04:34:57;;;;;;;5.1;2.2;;;;;;;7.6;78.8;97550;;;;
2023/04/15 04:45:57;;;;;;;5.5;2.4;;;;;;;7.8;79.7;97550;;;;
2023/04/15 04:55:57;;;;;;;5.5;2.4;;;;;;;8.1;79.6;97550;;;;
2023/04/15 05:05:58;;;;;;;5.5;2.4;;;;;;;8.4;79.7;97560;;;;
2023/04/15 05:16:57;;;;;;;5.5;2.5;;;;;;;9;79.3;97560;;;;
2023/04/15 05:27:58;;;;;;;;;;;;;;;9.5;77.9;97580;;;;
2023/04/15 05:38:57;;;;;;;4.9;2.7;;;;;;;10.1;77.3;97580;;;;
2023/04/15 05:48:57;;;;;;;4.9;2.7;;;;;;;10.9;74.9;97580;;;;
2023/04/15 05:58:57;;;;;;;4.9;2.7;;;;;;;11.3;70.7;97580;;;;
2023/04/15 06:09:57;;;;;;;4.6;2.4;;;;;;;11.9;69.8;97590;;;;
2023/04/15 06:20:57;;;;;;;4.6;2.4;;;;;;;12.5;68.2;97600;;;;
2023/04/15 06:31:57;;;;;;;4.7;2.1;;;;;;;13;66.2;97610;;;;
2023/04/15 06:42:57;;;;;;;4.7;2.1;;;;;;;13.3;65.2;97610;;;;
2023/04/15 06:52:57;;;;;;;4.7;2.1;;;;;;;13.8;64.1;97620;;;;
2023/04/15 07:02:57;;;;;;;4.4;2;;;;;;;13.8;60.8;97620;;;;
2023/04/15 07:12:57;;;;;;;4.4;2;;;;;;;14.3;59.5;97640;;;;
2023/04/15 07:23:57;;;;;;;4.4;2;;;;;;;14.4;58.8;97650;;;;
2023/04/15 07:34:57;;;;;;;2.9;1.3;;;;;;;14.7;57.4;97660;;;;
2023/04/15 07:44:57;;;;;;;2.9;1.3;;;;;;;14.8;57.1;97670;;;;
2023/04/15 07:54:57;;;;;;;2.9;1.3;;;;;;;14.9;56.2;97660;;;;
2023/04/15 08:05:57;;;;;;;4.1;1.6;;;;;;;15.6;55.1;97670;;;;
2023/04/15 08:16:57;;;;;;;4.1;1.6;;;;;;;15.8;54.5;97670;;;;
2023/04/15 08:27:57;;;;;;;4.1;1.6;;;;;;;16;55.8;97680;;;;
2023/04/15 08:38:58;;;;;;;3.7;1.7;;;;;;;16.2;53.9;97680;;;;
2023/04/15 08:49:58;;;;;;;3.7;1.7;;;;;;;16;52.3;97670;;;;
2023/04/15 08:59:57;;;;;;;3.7;1.7;;;;;;;16.2;54;97670;;;;
2023/04/15 09:09:57;;;;;;;4.9;2.5;;;;;;;16.2;53.2;97670;;;;
2023/04/15 09:20:57;;;;;;;4.9;2.5;;;;;;;15.7;52.5;97660;;;;
2023/04/15 09:30:57;;;;;;;4.9;2.5;;;;;;;16.2;51.8;97650;;;;
2023/04/15 09:41:57;;;;;;;8.6;2.4;;;;;;;16.2;50.2;97660;;;;
2023/04/15 09:51:58;;;;;;;8.6;2.4;;;;;;;16.9;51.4;97660;;;;
2023/04/15 10:02:57;;;;;;;4.8;2.1;;;;;;;17.1;51.4;97660;;;;
2023/04/15 10:12:57;;;;;;;4.8;2.1;;;;;;;16.8;51.3;97660;;;;
2023/04/15 10:23:57;;;;;;;4.8;2.1;;;;;;;16.5;51.2;97650;;;;
2023/04/15 10:34:57;;;;;;;5.5;2.5;;;;;;;16.5;50.8;97650;;;;
2023/04/15 10:44:57;;;;;;;5.5;2.5;;;;;;;15.9;50.1;97650;;;;
2023/04/15 10:55:57;;;;;;;5.5;2.5;;;;;;;15.6;51.7;97650;;;;
2023/04/15 11:05:57;;;;;;;3.8;1.6;;;;;;;15.3;52.5;97660;;;;
2023/04/15 11:16:57;;;;;;;3.8;1.6;;;;;;;16.2;50.5;97660;;;;
2023/04/15 11:26:58;;;;;;;3.8;1.6;;;;;;;16.6;48.5;97670;;;;
2023/04/15 11:37:57;;;;;;;6.7;3.7;;;;;;;16.9;47.8;97670;;;;
2023/04/15 11:47:57;;;;;;;6.7;3.7;;;;;;;16.9;48.5;97680;;;;
2023/04/15 11:57:57;;;;;;;6.7;3.7;;;;;;;17.2;48.6;97690;;;;
2023/04/15 12:08:58;;;;;;;9;6.3;;;;;;;17.6;48.4;97680;;;;
2023/04/15 12:18:57;;;;;;;9;6.3;;;;;;;17.4;48.2;97680;;;;
2023/04/15 12:29:57;;;;;;;9;6.3;;;;;;;17.5;47.1;97690;;;;
2023/04/15 12:40:57;;;;;;;4.9;2.8;;;;;;;17.3;47.6;97690;;;;
2023/04/15 12:50:57;;;;;;;4.9;2.8;;;;;;;16.9;47.9;97680;;;;
2023/04/15 13:01:59;;;;;;;3.9;2.3;;;;;;;17.4;47.6;97680;;;;
2023/04/15 13:12:57;;;;;;;3.9;2.3;;;;;;;17.5;48.2;97690;;;;
2023/04/15 13:22:57;;;;;;;3.9;2.3;;;;;;;17.3;45.8;97690;;;;
2023/04/15 13:33:57;;;;;;;3.5;1.4;;;;;;;17.4;46.3;97690;;;;
2023/04/15 13:44:57;;;;;;;3.5;1.4;;;;;;;17.2;45.6;97690;;;;
2023/04/15 13:55:57;;;;;;;3.5;1.4;;;;;;;18;45.5;97680;;;;
2023/04/15 14:06:57;;;;;;;10.2;6.1;;;;;;;17.5;45.3;97690;;;;
2023/04/15 14:16:57;;;;;;;10.2;6.1;;;;;;;18.3;43.8;97690;;;;
2023/04/15 14:26:57;;;;;;;10.2;6.1;;;;;;;18.7;43.7;97690;;;;
2023/04/15 14:36:57;;;;;;;9.2;6.7;;;;;;;18.1;45.1;97690;;;;
2023/04/15 14:46:58;;;;;;;9.2;6.7;;;;;;;18.4;44.7;97690;;;;
2023/04/15 14:56:58;;;;;;;9.2;6.7;;;;;;;17.6;45.8;97700;;;;
2023/04/15 15:06:57;;;;;;;4.3;2.3;;;;;;;16.4;50;97720;;;;
2023/04/15 15:17:58;;;;;;;4.3;2.3;;;;;;;15.6;51;97740;;;;
2023/04/15 15:27:57;;;;;;;4.3;2.3;;;;;;;15.4;52.2;97740;;;;
2023/04/15 15:37:58;;;;;;;23;10.1;;;;;;;15.3;52.5;97750;;;;
2023/04/15 15:48:57;;;;;;;23;10.1;;;;;;;14.6;55.4;97750;;;;
2023/04/15 15:58:57;;;;;;;23;10.1;;;;;;;13.2;60.7;97780;;;;
2023/04/15 16:08:58;;;;;;;5.2;3.5;;;;;;;12.9;61.5;97780;;;;
2023/04/15 16:18:57;;;;;;;5.2;3.5;;;;;;;12.9;61;97800;;;;
2023/04/15 16:28:58;;;;;;;5.2;3.5;;;;;;;12.5;63.3;97850;;;;
2023/04/15 16:38:58;;;;;;;7.7;4.3;;;;;;;11.2;70.6;97850;;;;
2023/04/15 16:49:58;;;;;;;7.7;4.3;;;;;;;11.2;65.6;97810;;;;
2023/04/15 17:00:58;;;;;;;7.7;4.3;;;;;;;10.8;72;97830;;;;
2023/04/15 17:11:58;;;;;;;6.1;3.3;;;;;;;10.6;71.6;97850;;;;
2023/04/15 17:21:58;;;;;;;6.1;3.3;;;;;;;10.4;72.2;97870;;;;
2023/04/15 17:31:58;;;;;;;8.5;3.9;;;;;;;10;73.4;97890;;;;
2023/04/15 17:42:58;;;;;;;8.5;3.9;;;;;;;9.5;75.3;97910;;;;
2023/04/15 17:52:58;;;;;;;8.5;3.9;;;;;;;9.2;76.6;97930;;;;
2023/04/15 18:02:58;;;;;;;13.1;6.4;;;;;;;9;78.5;97940;;;;
2023/04/15 18:12:58;;;;;;;13.1;6.4;;;;;;;8.8;80;97950;;;;
2023/04/15 18:23:58;;;;;;;13.1;6.4;;;;;;;8.6;80.3;97980;;;;
2023/04/15 18:33:58;;;;;;;9.8;4.8;;;;;;;8.4;80.4;97990;;;;
2023/04/15 18:44:58;;;;;;;9.8;4.8;;;;;;;8.3;80.6;98000;;;;
2023/04/15 18:56:00;;;;;;;9.8;4.8;;;;;;;8.1;80.4;98020;;;;
2023/04/15 19:05:58;;;;;;;19.7;9.4;;;;;;;7.8;80.8;98030;;;;
2023/04/15 19:16:58;;;;;;;19.7;9.4;;;;;;;7.6;81.2;98040;;;;
2023/04/15 19:26:58;;;;;;;19.7;9.4;;;;;;;7.3;81;98050;;;;
2023/04/15 19:36:58;;;;;;;97.7;52.1;;;;;;;7.1;80.9;98070;;;;
2023/04/15 19:46:58;;;;;;;97.7;52.1;;;;;;;6.9;81.1;98080;;;;
2023/04/15 19:57:58;;;;;;;97.7;52.1;;;;;;;6.6;82;98090;;;;
2023/04/15 20:08:58;;;;;;;15.7;9.1;;;;;;;6.6;85.2;98110;;;;
2023/04/15 20:19:00;;;;;;;15.7;9.1;;;;;;;6.7;86;98110;;;;
2023/04/15 20:29:58;;;;;;;15.7;9.1;;;;;;;6.7;85.2;98110;;;;
2023/04/15 20:39:58;;;;;;;16.4;8.9;;;;;;;6.6;84.1;98120;;;;
2023/04/15 20:49:58;;;;;;;16.4;8.9;;;;;;;6.5;83.7;98130;;;;
2023/04/15 21:00:58;;;;;;;16.4;8.9;;;;;;;6.4;83.7;98140;;;;
2023/04/15 21:10:58;;;;;;;14.1;7.7;;;;;;;6.3;84;98150;;;;
2023/04/15 21:21:58;;;;;;;14.1;7.7;;;;;;;6.4;86.5;98160;;;;
2023/04/15 21:32:58;;;;;;;15.4;9.3;;;;;;;6.6;87;98180;;;;
2023/04/15 21:42:58;;;;;;;15.4;9.3;;;;;;;6.5;87;98190;;;;
2023/04/15 21:52:58;;;;;;;15.4;9.3;;;;;;;6.5;87.5;98200;;;;
2023/04/15 22:02:58;;;;;;;18.7;11.3;;;;;;;6.5;86.6;98210;;;;
2023/04/15 22:13:58;;;;;;;18.7;11.3;;;;;;;6.4;85.9;98210;;;;
2023/04/15 22:23:58;;;;;;;18.7;11.3;;;;;;;6.4;86.7;98220;;;;
2023/04/15 22:34:58;;;;;;;15.8;9.3;;;;;;;6.3;85.6;98230;;;;
2023/04/15 22:45:58;;;;;;;15.8;9.3;;;;;;;6.1;85.4;98230;;;;
2023/04/15 22:56:58;;;;;;;15.8;9.3;;;;;;;6.2;87.3;98240;;;;
2023/04/15 23:06:58;;;;;;;15.9;8.2;;;;;;;6.3;86.9;98260;;;;
2023/04/15 23:16:58;;;;;;;15.9;8.2;;;;;;;6.2;86.1;98270;;;;
2023/04/15 23:26:58;;;;;;;15.9;8.2;;;;;;;5.9;85.1;98270;;;;
2023/04/15 23:37:58;;;;;;;22.4;12.8;;;;;;;5.5;84.1;98280;;;;
2023/04/15 23:48:58;;;;;;;22.4;12.8;;;;;;;5.3;84.9;98290;;;;
2023/04/15 23:58:58;;;;;;;22.4;12.8;;;;;;;5.3;86.1;98290;;;;
